sensor_id;sensor_type;location;lat;lon;timestamp;pressure;altitude;pressure_sealevel;temperature
68745;BMP180;73143;45.456;11.064;2023-10-08T00:01:07;101501.40;;;20.20
68745;BMP180;73143;45.456;11.064;2023-10-08T00:03:49;101502.20;;;20.20
68745;BMP180;73143;45.456;11.064;2023-10-08T00:06:27;101503.20;;;20.20
68745;BMP180;73143;45.456;11.064;2023-10-08T00:09:05;101501.60;;;20.20
68745;BMP180;73143;45.456;11.064;2023-10-08T00:11:47;101508.20;;;20.20
68745;BMP180;73143;45.456;11.064;2023-10-08T00:14:27;101505.00;;;20.16
68745;BMP180;73143;45.456;11.064;2023-10-08T00:17:05;101506.60;;;20.10
68745;BMP180;73143;45.456;11.064;2023-10-08T00:19:45;101502.20;;;20.02
68745;BMP180;73143;45.456;11.064;2023-10-08T00:22:26;101495.80;;;19.90
68745;BMP180;73143;45.456;11.064;2023-10-08T00:25:13;101490.80;;;19.90
68745;BMP180;73143;45.456;11.064;2023-10-08T00:27:51;101496.40;;;19.80
68745;BMP180;73143;45.456;11.064;2023-10-08T00:30:27;101498.00;;;19.80
68745;BMP180;73143;45.456;11.064;2023-10-08T00:33:06;101497.60;;;19.80
68745;BMP180;73143;45.456;11.064;2023-10-08T00:35:49;101491.40;;;19.80
68745;BMP180;73143;45.456;11.064;2023-10-08T00:38:26;101484.60;;;19.80
68745;BMP180;73143;45.456;11.064;2023-10-08T00:41:05;101480.20;;;19.80
68745;BMP180;73143;45.456;11.064;2023-10-08T00:43:43;101472.20;;;19.80
68745;BMP180;73143;45.456;11.064;2023-10-08T00:46:21;101467.00;;;19.80
68745;BMP180;73143;45.456;11.064;2023-10-08T00:48:59;101465.80;;;19.80
68745;BMP180;73143;45.456;11.064;2023-10-08T00:51:53;101461.00;;;19.70
68745;BMP180;73143;45.456;11.064;2023-10-08T00:54:43;101462.20;;;19.70
68745;BMP180;73143;45.456;11.064;2023-10-08T00:57:30;101458.20;;;19.60
68745;BMP180;73143;45.456;11.064;2023-10-08T01:00:15;101455.60;;;19.60
68745;BMP180;73143;45.456;11.064;2023-10-08T01:02:58;101450.00;;;19.50
68745;BMP180;73143;45.456;11.064;2023-10-08T01:05:39;101447.60;;;19.50
68745;BMP180;73143;45.456;11.064;2023-10-08T01:08:22;101445.40;;;19.50
68745;BMP180;73143;45.456;11.064;2023-10-08T01:14:06;101437.20;;;19.50
68745;BMP180;73143;45.456;11.064;2023-10-08T01:16:49;101434.20;;;19.50
68745;BMP180;73143;45.456;11.064;2023-10-08T01:19:26;101432.20;;;19.50
68745;BMP180;73143;45.456;11.064;2023-10-08T01:22:08;101427.80;;;19.50
68745;BMP180;73143;45.456;11.064;2023-10-08T01:24:50;101429.40;;;19.50
68745;BMP180;73143;45.456;11.064;2023-10-08T01:27:31;101419.80;;;19.46
68745;BMP180;73143;45.456;11.064;2023-10-08T01:30:14;101422.20;;;19.40
68745;BMP180;73143;45.456;11.064;2023-10-08T01:32:52;101420.80;;;19.40
68745;BMP180;73143;45.456;11.064;2023-10-08T01:35:29;101421.80;;;19.40
68745;BMP180;73143;45.456;11.064;2023-10-08T01:38:14;101422.40;;;19.40
68745;BMP180;73143;45.456;11.064;2023-10-08T01:40:58;101419.60;;;19.40
68745;BMP180;73143;45.456;11.064;2023-10-08T01:43:41;101417.20;;;19.40
68745;BMP180;73143;45.456;11.064;2023-10-08T01:46:18;101411.40;;;19.38
68745;BMP180;73143;45.456;11.064;2023-10-08T01:48:57;101405.80;;;19.40
68745;BMP180;73143;45.456;11.064;2023-10-08T01:51:38;101410.40;;;19.36
68745;BMP180;73143;45.456;11.064;2023-10-08T01:54:21;101408.60;;;19.30
68745;BMP180;73143;45.456;11.064;2023-10-08T01:57:01;101414.40;;;19.30
68745;BMP180;73143;45.456;11.064;2023-10-08T01:59:37;101413.60;;;19.20
68745;BMP180;73143;45.456;11.064;2023-10-08T02:02:14;101413.80;;;19.10
68745;BMP180;73143;45.456;11.064;2023-10-08T02:04:51;101412.40;;;19.00
68745;BMP180;73143;45.456;11.064;2023-10-08T02:07:27;101406.40;;;19.00
68745;BMP180;73143;45.456;11.064;2023-10-08T02:10:12;101401.40;;;18.90
68745;BMP180;73143;45.456;11.064;2023-10-08T02:12:49;101401.40;;;18.70
68745;BMP180;73143;45.456;11.064;2023-10-08T02:15:28;101400.80;;;18.70
68745;BMP180;73143;45.456;11.064;2023-10-08T02:18:07;101404.60;;;18.70
68745;BMP180;73143;45.456;11.064;2023-10-08T02:20:46;101404.40;;;18.58
68745;BMP180;73143;45.456;11.064;2023-10-08T02:23:22;101402.20;;;18.50
68745;BMP180;73143;45.456;11.064;2023-10-08T02:26:03;101404.00;;;18.40
68745;BMP180;73143;45.456;11.064;2023-10-08T02:28:40;101397.00;;;18.40
68745;BMP180;73143;45.456;11.064;2023-10-08T02:31:18;101393.60;;;18.40
68745;BMP180;73143;45.456;11.064;2023-10-08T02:33:56;101392.80;;;18.44
68745;BMP180;73143;45.456;11.064;2023-10-08T02:36:33;101395.80;;;18.40
68745;BMP180;73143;45.456;11.064;2023-10-08T02:39:13;101388.80;;;18.40
68745;BMP180;73143;45.456;11.064;2023-10-08T02:41:52;101383.00;;;18.40
68745;BMP180;73143;45.456;11.064;2023-10-08T02:44:33;101382.80;;;18.40
68745;BMP180;73143;45.456;11.064;2023-10-08T02:47:13;101379.20;;;18.30
68745;BMP180;73143;45.456;11.064;2023-10-08T02:49:51;101375.20;;;18.30
68745;BMP180;73143;45.456;11.064;2023-10-08T02:52:32;101373.80;;;18.30
68745;BMP180;73143;45.456;11.064;2023-10-08T02:55:13;101369.60;;;18.28
68745;BMP180;73143;45.456;11.064;2023-10-08T02:58:02;101364.40;;;18.30
68745;BMP180;73143;45.456;11.064;2023-10-08T03:00:40;101360.60;;;18.30
68745;BMP180;73143;45.456;11.064;2023-10-08T03:03:17;101355.40;;;18.30
68745;BMP180;73143;45.456;11.064;2023-10-08T03:05:55;101356.20;;;18.30
68745;BMP180;73143;45.456;11.064;2023-10-08T03:08:32;101352.40;;;18.30
68745;BMP180;73143;45.456;11.064;2023-10-08T03:11:12;101345.60;;;18.30
68745;BMP180;73143;45.456;11.064;2023-10-08T03:13:54;101350.60;;;18.30
68745;BMP180;73143;45.456;11.064;2023-10-08T03:16:31;101348.00;;;18.38
68745;BMP180;73143;45.456;11.064;2023-10-08T03:19:09;101347.20;;;18.40
68745;BMP180;73143;45.456;11.064;2023-10-08T03:21:48;101340.80;;;18.30
68745;BMP180;73143;45.456;11.064;2023-10-08T03:24:29;101345.40;;;18.20
68745;BMP180;73143;45.456;11.064;2023-10-08T03:27:11;101340.80;;;18.20
68745;BMP180;73143;45.456;11.064;2023-10-08T03:29:55;101342.60;;;18.12
68745;BMP180;73143;45.456;11.064;2023-10-08T03:32:35;101337.00;;;18.00
68745;BMP180;73143;45.456;11.064;2023-10-08T03:35:13;101337.80;;;17.84
68745;BMP180;73143;45.456;11.064;2023-10-08T03:37:50;101338.60;;;17.80
68745;BMP180;73143;45.456;11.064;2023-10-08T03:40:29;101342.20;;;17.70
68745;BMP180;73143;45.456;11.064;2023-10-08T03:43:19;101352.40;;;17.58
68745;BMP180;73143;45.456;11.064;2023-10-08T03:46:09;101353.00;;;17.40
68745;BMP180;73143;45.456;11.064;2023-10-08T03:48:51;101358.60;;;17.40
68745;BMP180;73143;45.456;11.064;2023-10-08T03:51:31;101352.60;;;17.46
68745;BMP180;73143;45.456;11.064;2023-10-08T03:54:14;101346.80;;;17.40
68745;BMP180;73143;45.456;11.064;2023-10-08T03:57:02;101342.00;;;17.40
68745;BMP180;73143;45.456;11.064;2023-10-08T03:59:47;101349.20;;;17.50
68745;BMP180;73143;45.456;11.064;2023-10-08T04:02:29;101349.00;;;17.50
68745;BMP180;73143;45.456;11.064;2023-10-08T04:05:14;101345.60;;;17.50
68745;BMP180;73143;45.456;11.064;2023-10-08T04:07:57;101342.40;;;17.50
68745;BMP180;73143;45.456;11.064;2023-10-08T04:10:58;101343.80;;;17.50
68745;BMP180;73143;45.456;11.064;2023-10-08T04:13:57;101338.20;;;17.50
68745;BMP180;73143;45.456;11.064;2023-10-08T04:16:37;101337.80;;;17.50
68745;BMP180;73143;45.456;11.064;2023-10-08T04:19:15;101330.20;;;17.50
68745;BMP180;73143;45.456;11.064;2023-10-08T04:21:54;101331.60;;;17.40
68745;BMP180;73143;45.456;11.064;2023-10-08T04:24:32;101329.40;;;17.48
68745;BMP180;73143;45.456;11.064;2023-10-08T04:27:12;101335.20;;;17.50
68745;BMP180;73143;45.456;11.064;2023-10-08T04:29:50;101331.20;;;17.50
68745;BMP180;73143;45.456;11.064;2023-10-08T04:32:28;101332.60;;;17.46
68745;BMP180;73143;45.456;11.064;2023-10-08T04:35:08;101335.80;;;17.40
68745;BMP180;73143;45.456;11.064;2023-10-08T04:37:49;101335.80;;;17.40
68745;BMP180;73143;45.456;11.064;2023-10-08T04:40:30;101339.40;;;17.40
68745;BMP180;73143;45.456;11.064;2023-10-08T04:43:17;101331.80;;;17.40
68745;BMP180;73143;45.456;11.064;2023-10-08T04:46:00;101339.20;;;17.40
68745;BMP180;73143;45.456;11.064;2023-10-08T04:48:41;101339.60;;;17.44
68745;BMP180;73143;45.456;11.064;2023-10-08T04:51:19;101340.00;;;17.40
68745;BMP180;73143;45.456;11.064;2023-10-08T04:53:57;101339.00;;;17.30
68745;BMP180;73143;45.456;11.064;2023-10-08T04:56:35;101337.80;;;17.20
68745;BMP180;73143;45.456;11.064;2023-10-08T04:59:13;101344.00;;;17.10
68745;BMP180;73143;45.456;11.064;2023-10-08T05:01:56;101339.20;;;17.10
68745;BMP180;73143;45.456;11.064;2023-10-08T05:04:49;101335.80;;;17.10
68745;BMP180;73143;45.456;11.064;2023-10-08T05:07:53;101341.40;;;17.10
68745;BMP180;73143;45.456;11.064;2023-10-08T05:11:12;101339.80;;;17.02
68745;BMP180;73143;45.456;11.064;2023-10-08T05:14:21;101341.60;;;17.00
68745;BMP180;73143;45.456;11.064;2023-10-08T05:17:10;101344.80;;;17.00
68745;BMP180;73143;45.456;11.064;2023-10-08T05:19:57;101344.20;;;17.00
68745;BMP180;73143;45.456;11.064;2023-10-08T05:22:54;101340.80;;;17.00
68745;BMP180;73143;45.456;11.064;2023-10-08T05:25:46;101338.40;;;16.92
68745;BMP180;73143;45.456;11.064;2023-10-08T05:28:34;101334.80;;;16.90
68745;BMP180;73143;45.456;11.064;2023-10-08T05:31:20;101341.20;;;17.00
68745;BMP180;73143;45.456;11.064;2023-10-08T05:34:13;101349.60;;;17.00
68745;BMP180;73143;45.456;11.064;2023-10-08T05:36:52;101352.00;;;17.10
68745;BMP180;73143;45.456;11.064;2023-10-08T05:40:13;101356.60;;;17.10
68745;BMP180;73143;45.456;11.064;2023-10-08T05:43:18;101358.60;;;17.12
68745;BMP180;73143;45.456;11.064;2023-10-08T05:46:19;101358.80;;;17.20
68745;BMP180;73143;45.456;11.064;2023-10-08T05:49:09;101353.80;;;17.20
68745;BMP180;73143;45.456;11.064;2023-10-08T05:52:16;101359.80;;;17.16
68745;BMP180;73143;45.456;11.064;2023-10-08T05:55:10;101348.40;;;17.20
68745;BMP180;73143;45.456;11.064;2023-10-08T05:58:02;101356.60;;;17.20
68745;BMP180;73143;45.456;11.064;2023-10-08T06:00:48;101351.00;;;17.20
68745;BMP180;73143;45.456;11.064;2023-10-08T06:03:44;101359.20;;;17.20
68745;BMP180;73143;45.456;11.064;2023-10-08T06:06:35;101364.40;;;17.20
68745;BMP180;73143;45.456;11.064;2023-10-08T06:09:24;101358.00;;;17.20
68745;BMP180;73143;45.456;11.064;2023-10-08T06:12:11;101362.20;;;17.20
68745;BMP180;73143;45.456;11.064;2023-10-08T06:14:54;101364.40;;;17.30
68745;BMP180;73143;45.456;11.064;2023-10-08T06:17:43;101360.60;;;17.40
68745;BMP180;73143;45.456;11.064;2023-10-08T06:20:41;101367.60;;;17.40
68745;BMP180;73143;45.456;11.064;2023-10-08T06:23:19;101373.00;;;17.48
68745;BMP180;73143;45.456;11.064;2023-10-08T06:25:58;101378.80;;;17.58
68745;BMP180;73143;45.456;11.064;2023-10-08T06:28:41;101385.40;;;17.60
68745;BMP180;73143;45.456;11.064;2023-10-08T06:31:17;101381.00;;;17.70
68745;BMP180;73143;45.456;11.064;2023-10-08T06:33:59;101387.00;;;17.78
68745;BMP180;73143;45.456;11.064;2023-10-08T06:36:38;101392.20;;;17.80
68745;BMP180;73143;45.456;11.064;2023-10-08T06:39:15;101392.40;;;17.90
68745;BMP180;73143;45.456;11.064;2023-10-08T06:41:54;101395.40;;;17.96
68745;BMP180;73143;45.456;11.064;2023-10-08T06:44:35;101396.80;;;18.00
68745;BMP180;73143;45.456;11.064;2023-10-08T06:47:17;101392.20;;;18.00
68745;BMP180;73143;45.456;11.064;2023-10-08T06:49:56;101394.60;;;17.90
68745;BMP180;73143;45.456;11.064;2023-10-08T06:52:42;101398.60;;;17.90
68745;BMP180;73143;45.456;11.064;2023-10-08T06:55:20;101392.60;;;17.90
68745;BMP180;73143;45.456;11.064;2023-10-08T06:58:03;101395.60;;;17.90
68745;BMP180;73143;45.456;11.064;2023-10-08T07:00:42;101391.00;;;17.92
68745;BMP180;73143;45.456;11.064;2023-10-08T07:03:37;101393.00;;;18.06
68745;BMP180;73143;45.456;11.064;2023-10-08T07:06:14;101399.80;;;18.20
68745;BMP180;73143;45.456;11.064;2023-10-08T07:09:05;101404.20;;;18.40
68745;BMP180;73143;45.456;11.064;2023-10-08T07:11:47;101405.40;;;18.54
68745;BMP180;73143;45.456;11.064;2023-10-08T07:14:25;101407.00;;;18.70
68745;BMP180;73143;45.456;11.064;2023-10-08T07:17:03;101404.80;;;18.80
68745;BMP180;73143;45.456;11.064;2023-10-08T07:19:44;101405.80;;;18.96
68745;BMP180;73143;45.456;11.064;2023-10-08T07:22:25;101406.40;;;19.10
68745;BMP180;73143;45.456;11.064;2023-10-08T07:25:03;101402.20;;;19.20
68745;BMP180;73143;45.456;11.064;2023-10-08T07:27:42;101400.80;;;19.30
68745;BMP180;73143;45.456;11.064;2023-10-08T07:30:20;101403.60;;;19.40
68745;BMP180;73143;45.456;11.064;2023-10-08T07:33:07;101402.20;;;19.50
68745;BMP180;73143;45.456;11.064;2023-10-08T07:35:53;101399.20;;;19.60
68745;BMP180;73143;45.456;11.064;2023-10-08T07:38:39;101401.60;;;19.60
68745;BMP180;73143;45.456;11.064;2023-10-08T07:41:17;101403.60;;;19.70
68745;BMP180;73143;45.456;11.064;2023-10-08T07:43:54;101402.20;;;19.74
68745;BMP180;73143;45.456;11.064;2023-10-08T07:46:31;101401.00;;;19.80
68745;BMP180;73143;45.456;11.064;2023-10-08T07:49:10;101398.00;;;19.94
68745;BMP180;73143;45.456;11.064;2023-10-08T07:51:48;101402.00;;;20.10
68745;BMP180;73143;45.456;11.064;2023-10-08T07:54:28;101397.80;;;20.20
68745;BMP180;73143;45.456;11.064;2023-10-08T07:57:08;101395.20;;;20.30
68745;BMP180;73143;45.456;11.064;2023-10-08T07:59:46;101396.00;;;20.42
68745;BMP180;73143;45.456;11.064;2023-10-08T08:02:22;101395.20;;;20.60
68745;BMP180;73143;45.456;11.064;2023-10-08T08:05:01;101396.00;;;20.70
68745;BMP180;73143;45.456;11.064;2023-10-08T08:07:38;101393.80;;;20.84
68745;BMP180;73143;45.456;11.064;2023-10-08T08:10:16;101385.40;;;20.98
68745;BMP180;73143;45.456;11.064;2023-10-08T08:12:57;101390.80;;;21.10
68745;BMP180;73143;45.456;11.064;2023-10-08T08:15:35;101385.00;;;21.18
68745;BMP180;73143;45.456;11.064;2023-10-08T08:18:14;101388.20;;;21.28
68745;BMP180;73143;45.456;11.064;2023-10-08T08:20:57;101394.60;;;21.32
68745;BMP180;73143;45.456;11.064;2023-10-08T08:23:36;101395.60;;;21.40
68745;BMP180;73143;45.456;11.064;2023-10-08T08:26:14;101391.00;;;21.50
68745;BMP180;73143;45.456;11.064;2023-10-08T08:29:02;101397.20;;;21.66
68745;BMP180;73143;45.456;11.064;2023-10-08T08:31:40;101391.40;;;21.74
68745;BMP180;73143;45.456;11.064;2023-10-08T08:34:20;101395.40;;;21.80
68745;BMP180;73143;45.456;11.064;2023-10-08T08:36:58;101395.20;;;21.90
68745;BMP180;73143;45.456;11.064;2023-10-08T08:39:34;101397.40;;;21.90
68745;BMP180;73143;45.456;11.064;2023-10-08T08:42:11;101398.40;;;22.00
68745;BMP180;73143;45.456;11.064;2023-10-08T08:44:50;101395.80;;;22.10
68745;BMP180;73143;45.456;11.064;2023-10-08T08:47:28;101395.20;;;22.20
68745;BMP180;73143;45.456;11.064;2023-10-08T08:50:11;101392.00;;;22.30
68745;BMP180;73143;45.456;11.064;2023-10-08T08:52:48;101390.00;;;22.32
68745;BMP180;73143;45.456;11.064;2023-10-08T08:55:26;101401.80;;;22.40
68745;BMP180;73143;45.456;11.064;2023-10-08T08:58:04;101404.60;;;22.44
68745;BMP180;73143;45.456;11.064;2023-10-08T09:00:48;101410.40;;;22.50
68745;BMP180;73143;45.456;11.064;2023-10-08T09:03:28;101412.20;;;22.60
68745;BMP180;73143;45.456;11.064;2023-10-08T09:06:08;101414.00;;;22.70
68745;BMP180;73143;45.456;11.064;2023-10-08T09:08:46;101411.80;;;22.70
68745;BMP180;73143;45.456;11.064;2023-10-08T09:11:24;101410.20;;;22.80
68745;BMP180;73143;45.456;11.064;2023-10-08T09:14:04;101410.00;;;22.90
68745;BMP180;73143;45.456;11.064;2023-10-08T09:16:46;101406.60;;;23.00
68745;BMP180;73143;45.456;11.064;2023-10-08T09:19:23;101404.60;;;23.10
68745;BMP180;73143;45.456;11.064;2023-10-08T09:22:08;101402.60;;;23.10
68745;BMP180;73143;45.456;11.064;2023-10-08T09:24:45;101411.00;;;23.20
68745;BMP180;73143;45.456;11.064;2023-10-08T09:27:23;101406.80;;;23.22
68745;BMP180;73143;45.456;11.064;2023-10-08T09:30:12;101407.20;;;23.30
68745;BMP180;73143;45.456;11.064;2023-10-08T09:32:53;101404.00;;;23.40
68745;BMP180;73143;45.456;11.064;2023-10-08T09:35:31;101404.80;;;23.40
68745;BMP180;73143;45.456;11.064;2023-10-08T09:38:09;101403.20;;;23.50
68745;BMP180;73143;45.456;11.064;2023-10-08T09:40:46;101398.40;;;23.52
68745;BMP180;73143;45.456;11.064;2023-10-08T09:43:24;101395.40;;;23.60
68745;BMP180;73143;45.456;11.064;2023-10-08T09:46:09;101396.60;;;23.70
68745;BMP180;73143;45.456;11.064;2023-10-08T09:48:53;101397.60;;;23.80
68745;BMP180;73143;45.456;11.064;2023-10-08T09:51:36;101401.00;;;23.80
68745;BMP180;73143;45.456;11.064;2023-10-08T09:54:23;101405.20;;;23.90
68745;BMP180;73143;45.456;11.064;2023-10-08T09:57:01;101404.00;;;24.00
68745;BMP180;73143;45.456;11.064;2023-10-08T09:59:39;101401.40;;;24.10
68745;BMP180;73143;45.456;11.064;2023-10-08T10:02:16;101394.00;;;24.18
68745;BMP180;73143;45.456;11.064;2023-10-08T10:04:59;101387.60;;;24.20
68745;BMP180;73143;45.456;11.064;2023-10-08T10:07:37;101386.40;;;24.24
68745;BMP180;73143;45.456;11.064;2023-10-08T10:10:30;101387.80;;;24.32
68745;BMP180;73143;45.456;11.064;2023-10-08T10:13:12;101386.40;;;24.40
68745;BMP180;73143;45.456;11.064;2023-10-08T10:15:49;101380.00;;;24.50
68745;BMP180;73143;45.456;11.064;2023-10-08T10:18:35;101381.20;;;24.60
68745;BMP180;73143;45.456;11.064;2023-10-08T10:21:34;101381.40;;;24.70
68745;BMP180;73143;45.456;11.064;2023-10-08T10:24:35;101378.80;;;24.70
68745;BMP180;73143;45.456;11.064;2023-10-08T10:27:19;101371.20;;;24.80
68745;BMP180;73143;45.456;11.064;2023-10-08T10:30:04;101364.00;;;24.90
68745;BMP180;73143;45.456;11.064;2023-10-08T10:32:46;101364.00;;;25.00
68745;BMP180;73143;45.456;11.064;2023-10-08T10:35:25;101364.60;;;25.00
68745;BMP180;73143;45.456;11.064;2023-10-08T10:38:02;101363.80;;;25.00
68745;BMP180;73143;45.456;11.064;2023-10-08T10:40:40;101359.60;;;25.00
68745;BMP180;73143;45.456;11.064;2023-10-08T10:43:17;101353.40;;;25.10
68745;BMP180;73143;45.456;11.064;2023-10-08T10:45:54;101351.40;;;25.12
68745;BMP180;73143;45.456;11.064;2023-10-08T10:48:31;101345.40;;;25.20
68745;BMP180;73143;45.456;11.064;2023-10-08T10:51:15;101340.20;;;25.30
68745;BMP180;73143;45.456;11.064;2023-10-08T10:53:52;101334.20;;;25.40
68745;BMP180;73143;45.456;11.064;2023-10-08T10:56:43;101329.40;;;25.50
68745;BMP180;73143;45.456;11.064;2023-10-08T10:59:21;101324.40;;;25.50
68745;BMP180;73143;45.456;11.064;2023-10-08T11:02:01;101320.40;;;25.60
68745;BMP180;73143;45.456;11.064;2023-10-08T11:04:42;101318.80;;;25.60
68745;BMP180;73143;45.456;11.064;2023-10-08T11:07:23;101318.60;;;25.70
68745;BMP180;73143;45.456;11.064;2023-10-08T11:10:01;101316.80;;;25.70
68745;BMP180;73143;45.456;11.064;2023-10-08T11:12:41;101318.60;;;25.78
68745;BMP180;73143;45.456;11.064;2023-10-08T11:15:22;101315.00;;;25.84
68745;BMP180;73143;45.456;11.064;2023-10-08T11:18:02;101312.60;;;25.90
68745;BMP180;73143;45.456;11.064;2023-10-08T11:20:39;101305.80;;;26.00
68745;BMP180;73143;45.456;11.064;2023-10-08T11:23:41;101303.80;;;26.10
68745;BMP180;73143;45.456;11.064;2023-10-08T11:26:18;101299.80;;;26.20
68745;BMP180;73143;45.456;11.064;2023-10-08T11:28:55;101299.40;;;26.30
68745;BMP180;73143;45.456;11.064;2023-10-08T11:31:35;101296.60;;;26.40
68745;BMP180;73143;45.456;11.064;2023-10-08T11:34:15;101293.80;;;26.40
68745;BMP180;73143;45.456;11.064;2023-10-08T11:36:59;101287.40;;;26.50
68745;BMP180;73143;45.456;11.064;2023-10-08T11:39:45;101279.40;;;26.60
68745;BMP180;73143;45.456;11.064;2023-10-08T11:42:22;101277.80;;;26.70
68745;BMP180;73143;45.456;11.064;2023-10-08T11:45:15;101272.80;;;26.80
68745;BMP180;73143;45.456;11.064;2023-10-08T11:47:58;101271.20;;;26.80
68745;BMP180;73143;45.456;11.064;2023-10-08T11:50:38;101271.80;;;26.90
68745;BMP180;73143;45.456;11.064;2023-10-08T11:53:15;101271.40;;;27.00
68745;BMP180;73143;45.456;11.064;2023-10-08T11:55:53;101265.20;;;27.00
68745;BMP180;73143;45.456;11.064;2023-10-08T11:58:31;101261.40;;;27.10
68745;BMP180;73143;45.456;11.064;2023-10-08T12:01:12;101256.00;;;27.10
68745;BMP180;73143;45.456;11.064;2023-10-08T12:03:49;101258.20;;;27.20
68745;BMP180;73143;45.456;11.064;2023-10-08T12:06:26;101250.20;;;27.20
68745;BMP180;73143;45.456;11.064;2023-10-08T12:09:05;101247.60;;;27.28
68745;BMP180;73143;45.456;11.064;2023-10-08T12:11:46;101245.60;;;27.34
68745;BMP180;73143;45.456;11.064;2023-10-08T12:14:23;101249.60;;;27.40
68745;BMP180;73143;45.456;11.064;2023-10-08T12:17:04;101241.80;;;27.50
68745;BMP180;73143;45.456;11.064;2023-10-08T12:19:45;101245.20;;;27.60
68745;BMP180;73143;45.456;11.064;2023-10-08T12:22:25;101243.20;;;27.70
68745;BMP180;73143;45.456;11.064;2023-10-08T12:25:03;101236.60;;;27.70
68745;BMP180;73143;45.456;11.064;2023-10-08T12:27:41;101233.60;;;27.80
68745;BMP180;73143;45.456;11.064;2023-10-08T12:30:19;101232.80;;;27.80
68745;BMP180;73143;45.456;11.064;2023-10-08T12:33:06;101227.20;;;27.90
68745;BMP180;73143;45.456;11.064;2023-10-08T12:35:47;101221.20;;;27.90
68745;BMP180;73143;45.456;11.064;2023-10-08T12:38:23;101223.20;;;28.00
68745;BMP180;73143;45.456;11.064;2023-10-08T12:41:03;101225.40;;;28.00
68745;BMP180;73143;45.456;11.064;2023-10-08T12:43:47;101232.40;;;28.10
68745;BMP180;73143;45.456;11.064;2023-10-08T12:46:27;101225.60;;;28.20
68745;BMP180;73143;45.456;11.064;2023-10-08T12:49:06;101228.40;;;28.20
68745;BMP180;73143;45.456;11.064;2023-10-08T12:51:42;101221.20;;;28.30
68745;BMP180;73143;45.456;11.064;2023-10-08T12:54:19;101220.00;;;28.30
68745;BMP180;73143;45.456;11.064;2023-10-08T12:57:00;101213.60;;;28.38
68745;BMP180;73143;45.456;11.064;2023-10-08T12:59:44;101214.00;;;28.40
68745;BMP180;73143;45.456;11.064;2023-10-08T13:02:26;101210.80;;;28.40
68745;BMP180;73143;45.456;11.064;2023-10-08T13:05:04;101206.20;;;28.48
68745;BMP180;73143;45.456;11.064;2023-10-08T13:07:51;101204.80;;;28.50
68745;BMP180;73143;45.456;11.064;2023-10-08T13:10:30;101204.40;;;28.40
68745;BMP180;73143;45.456;11.064;2023-10-08T13:13:08;101202.60;;;28.40
68745;BMP180;73143;45.456;11.064;2023-10-08T13:15:45;101199.20;;;28.40
68745;BMP180;73143;45.456;11.064;2023-10-08T13:18:22;101198.40;;;28.40
68745;BMP180;73143;45.456;11.064;2023-10-08T13:20:59;101194.20;;;28.40
68745;BMP180;73143;45.456;11.064;2023-10-08T13:23:36;101194.00;;;28.40
68745;BMP180;73143;45.456;11.064;2023-10-08T13:26:11;101192.40;;;28.50
68745;BMP180;73143;45.456;11.064;2023-10-08T13:28:51;101193.40;;;28.50
68745;BMP180;73143;45.456;11.064;2023-10-08T13:31:27;101193.40;;;28.52
68745;BMP180;73143;45.456;11.064;2023-10-08T13:34:05;101191.80;;;28.60
68745;BMP180;73143;45.456;11.064;2023-10-08T13:36:46;101189.20;;;28.60
68745;BMP180;73143;45.456;11.064;2023-10-08T13:39:23;101183.80;;;28.60
68745;BMP180;73143;45.456;11.064;2023-10-08T13:42:02;101181.60;;;28.70
68745;BMP180;73143;45.456;11.064;2023-10-08T13:44:38;101179.80;;;28.70
68745;BMP180;73143;45.456;11.064;2023-10-08T13:47:17;101181.00;;;28.70
68745;BMP180;73143;45.456;11.064;2023-10-08T13:49:56;101176.20;;;28.70
68745;BMP180;73143;45.456;11.064;2023-10-08T13:52:33;101172.40;;;28.80
68745;BMP180;73143;45.456;11.064;2023-10-08T13:55:15;101170.20;;;28.80
68745;BMP180;73143;45.456;11.064;2023-10-08T13:57:54;101165.80;;;28.86
68745;BMP180;73143;45.456;11.064;2023-10-08T14:00:32;101164.40;;;28.90
68745;BMP180;73143;45.456;11.064;2023-10-08T14:03:10;101162.20;;;28.90
68745;BMP180;73143;45.456;11.064;2023-10-08T14:05:48;101163.60;;;28.90
68745;BMP180;73143;45.456;11.064;2023-10-08T14:08:25;101169.80;;;28.80
68745;BMP180;73143;45.456;11.064;2023-10-08T14:11:02;101175.40;;;28.76
68745;BMP180;73143;45.456;11.064;2023-10-08T14:13:40;101177.80;;;28.70
68745;BMP180;73143;45.456;11.064;2023-10-08T14:16:17;101176.40;;;28.60
68745;BMP180;73143;45.456;11.064;2023-10-08T14:18:58;101171.20;;;28.50
68745;BMP180;73143;45.456;11.064;2023-10-08T14:21:38;101172.00;;;28.50
68745;BMP180;73143;45.456;11.064;2023-10-08T14:24:23;101163.40;;;28.50
68745;BMP180;73143;45.456;11.064;2023-10-08T14:27:02;101162.80;;;28.40
68745;BMP180;73143;45.456;11.064;2023-10-08T14:29:44;101161.40;;;28.40
68745;BMP180;73143;45.456;11.064;2023-10-08T14:32:25;101159.80;;;28.30
68745;BMP180;73143;45.456;11.064;2023-10-08T14:35:02;101161.80;;;28.30
68745;BMP180;73143;45.456;11.064;2023-10-08T14:37:57;101164.20;;;28.30
68745;BMP180;73143;45.456;11.064;2023-10-08T14:40:51;101160.20;;;28.20
68745;BMP180;73143;45.456;11.064;2023-10-08T14:43:45;101156.80;;;28.20
68745;BMP180;73143;45.456;11.064;2023-10-08T14:46:22;101166.00;;;28.10
68745;BMP180;73143;45.456;11.064;2023-10-08T14:48:59;101172.00;;;28.10
68745;BMP180;73143;45.456;11.064;2023-10-08T14:51:38;101173.40;;;28.10
68745;BMP180;73143;45.456;11.064;2023-10-08T14:54:16;101174.60;;;28.00
68745;BMP180;73143;45.456;11.064;2023-10-08T14:56:55;101173.80;;;28.00
68745;BMP180;73143;45.456;11.064;2023-10-08T14:59:33;101175.40;;;28.00
68745;BMP180;73143;45.456;11.064;2023-10-08T15:02:09;101179.20;;;28.00
68745;BMP180;73143;45.456;11.064;2023-10-08T15:04:47;101182.00;;;28.00
68745;BMP180;73143;45.456;11.064;2023-10-08T15:07:24;101182.40;;;28.00